Time;durP1;ratioP1;P1;durP2;ratioP2;P2;SDS_P1;SDS_P2;PMS_P1;PMS_P2;Temp;Humidity;BMP_temperature;BMP_pressure;BME280_temperature;BME280_humidity;BME280_pressure;Samples;Min_cycle;Max_cycle;Signal;HPM_P1;HPM_P2
2021/10/18 00:01:11;;;;;;;6.18;4.28;;;9.40;67.00;;;;;;6275079;22;20081;-67
2021/10/18 00:03:37;;;;;;;4.95;3.97;;;9.40;67.00;;;;;;6275057;22;19999;-67
2021/10/18 00:06:03;;;;;;;5.85;4.03;;;9.40;67.00;;;;;;6274808;22;20010;-67
2021/10/18 00:08:29;;;;;;;6.18;4.00;;;9.40;67.00;;;;;;6275186;22;19996;-67
2021/10/18 00:10:55;;;;;;;4.57;3.60;;;9.30;66.90;;;;;;6275014;22;20443;-67
2021/10/18 00:13:21;;;;;;;6.68;4.38;;;9.30;66.90;;;;;;6274815;22;20027;-67
2021/10/18 00:15:47;;;;;;;6.28;4.00;;;9.30;66.90;;;;;;6275176;22;19999;-68
2021/10/18 00:18:13;;;;;;;8.57;5.28;;;9.30;67.00;;;;;;6273387;22;20428;-68
2021/10/18 00:20:38;;;;;;;7.32;5.40;;;9.20;67.40;;;;;;6275051;22;20026;-68
2021/10/18 00:23:04;;;;;;;9.55;5.10;;;9.30;68.00;;;;;;6274970;22;20022;-67
2021/10/18 00:25:30;;;;;;;7.82;5.00;;;9.30;68.40;;;;;;6274691;22;20104;-68
2021/10/18 00:27:56;;;;;;;8.45;4.60;;;9.30;68.60;;;;;;6274775;22;20075;-67
2021/10/18 00:30:21;;;;;;;13.70;5.20;;;9.30;68.70;;;;;;6274958;22;20003;-68
2021/10/18 00:32:47;;;;;;;6.18;4.82;;;9.30;68.50;;;;;;6275033;22;20067;-68
2021/10/18 00:35:13;;;;;;;6.25;4.28;;;9.40;68.20;;;;;;6274891;22;20438;-68
2021/10/18 00:37:39;;;;;;;5.88;3.80;;;9.40;68.00;;;;;;6274620;22;19995;-68
2021/10/18 00:40:07;;;;;;;17.05;5.88;;;9.40;67.80;;;;;;6274856;22;20030;-67
2021/10/18 00:42:33;;;;;;;11.40;5.90;;;9.40;67.70;;;;;;6274791;22;20004;-67
2021/10/18 00:44:59;;;;;;;7.82;5.28;;;9.40;67.70;;;;;;6274760;22;20026;-67
2021/10/18 00:47:25;;;;;;;7.07;4.97;;;9.40;68.00;;;;;;6274576;22;20003;-67
2021/10/18 00:49:51;;;;;;;9.18;5.50;;;9.40;68.20;;;;;;6274750;22;20000;-67
2021/10/18 00:52:19;;;;;;;12.10;5.28;;;9.40;68.20;;;;;;6274658;22;20378;-67
2021/10/18 00:54:46;;;;;;;5.97;4.18;;;9.50;68.20;;;;;;6274664;22;20004;-67
2021/10/18 00:57:14;;;;;;;7.85;4.22;;;9.50;68.00;;;;;;6274600;22;20004;-67
2021/10/18 00:59:41;;;;;;;5.82;3.97;;;9.50;67.80;;;;;;6274661;22;20011;-66
2021/10/18 01:02:07;;;;;;;5.75;3.95;;;9.50;67.60;;;;;;6274748;22;20010;-67
2021/10/18 01:04:32;;;;;;;4.10;3.70;;;9.50;67.60;;;;;;6274438;22;20007;-67
2021/10/18 01:06:58;;;;;;;5.03;3.50;;;9.50;67.60;;;;;;6274043;22;20593;-67
2021/10/18 01:09:24;;;;;;;12.63;4.18;;;9.50;67.50;;;;;;6273954;22;20004;-67
2021/10/18 01:11:50;;;;;;;10.32;4.80;;;9.50;67.50;;;;;;6274169;22;20000;-68
2021/10/18 01:14:16;;;;;;;6.20;3.83;;;9.50;67.40;;;;;;6274619;22;20011;-68
2021/10/18 01:16:42;;;;;;;7.43;3.88;;;9.50;67.30;;;;;;6274329;22;20067;-67
2021/10/18 01:19:14;;;;;;;8.27;4.30;;;9.50;67.30;;;;;;6275965;22;20075;-68
2021/10/18 01:21:40;;;;;;;10.98;4.68;;;9.40;67.20;;;;;;6276816;22;20007;-67
2021/10/18 01:24:06;;;;;;;5.60;3.63;;;9.40;67.40;;;;;;6276670;22;20339;-68
2021/10/18 01:26:32;;;;;;;9.95;3.55;;;9.50;67.60;;;;;;6276678;22;20027;-68
2021/10/18 01:28:58;;;;;;;8.75;4.15;;;9.50;67.70;;;;;;6276553;22;20071;-68
2021/10/18 01:31:24;;;;;;;7.43;3.72;;;9.50;67.80;;;;;;6276696;22;20383;-68
2021/10/18 01:33:49;;;;;;;7.05;3.47;;;9.60;68.00;;;;;;6277764;22;20000;-68
2021/10/18 01:36:16;;;;;;;4.70;3.58;;;9.60;68.10;;;;;;6276444;22;20006;-68
2021/10/18 01:38:42;;;;;;;6.03;3.45;;;9.60;68.20;;;;;;6276504;22;20366;-68
2021/10/18 01:41:08;;;;;;;7.85;4.03;;;9.70;68.30;;;;;;6277226;22;20014;-68
2021/10/18 01:43:33;;;;;;;8.55;5.68;;;9.70;68.30;;;;;;6276401;22;20007;-68
2021/10/18 01:45:59;;;;;;;16.88;5.30;;;9.80;68.30;;;;;;6276121;22;20008;-68
2021/10/18 01:48:25;;;;;;;6.78;4.40;;;9.80;68.30;;;;;;6276348;22;19996;-68
2021/10/18 01:50:51;;;;;;;5.93;4.32;;;9.90;68.10;;;;;;6276374;22;20026;-68
2021/10/18 01:53:16;;;;;;;8.18;4.90;;;9.90;67.90;;;;;;6276432;22;20007;-68
2021/10/18 01:55:42;;;;;;;7.15;4.75;;;10.00;67.80;;;;;;6276380;22;20023;-68
2021/10/18 01:58:11;;;;;;;6.40;4.38;;;10.00;67.60;;;;;;6276192;22;20145;-68
2021/10/18 02:00:38;;;;;;;9.13;5.10;;;9.90;67.50;;;;;;6274650;22;20428;-68
2021/10/18 02:03:04;;;;;;;15.02;5.07;;;9.90;67.40;;;;;;6276302;22;20002;-68
2021/10/18 02:05:29;;;;;;;7.45;4.93;;;10.00;67.50;;;;;;6276155;22;20023;-68
2021/10/18 02:07:55;;;;;;;16.50;5.68;;;10.00;67.50;;;;;;6276222;22;20004;-68
2021/10/18 02:10:21;;;;;;;9.35;4.15;;;10.00;67.60;;;;;;6276109;22;20066;-68
2021/10/18 02:12:47;;;;;;;15.70;4.63;;;10.00;67.50;;;;;;6275952;22;20012;-68
2021/10/18 02:15:13;;;;;;;12.07;4.70;;;10.00;67.50;;;;;;6276158;22;20011;-69
2021/10/18 02:17:40;;;;;;;7.30;4.25;;;10.00;67.40;;;;;;6275978;22;20077;-68
2021/10/18 02:20:08;;;;;;;9.15;3.60;;;10.00;67.30;;;;;;6275946;22;20053;-68
2021/10/18 02:22:33;;;;;;;9.30;4.25;;;10.00;67.30;;;;;;6276059;22;19996;-68
2021/10/18 02:24:59;;;;;;;7.18;4.38;;;10.00;67.20;;;;;;6276008;22;20023;-68
2021/10/18 02:27:25;;;;;;;11.05;5.10;;;10.00;67.20;;;;;;6275819;22;20006;-68
2021/10/18 02:29:51;;;;;;;10.32;5.13;;;10.00;67.20;;;;;;6276037;22;19995;-68
2021/10/18 02:32:17;;;;;;;18.13;5.57;;;10.00;67.20;;;;;;6275798;22;20443;-68
2021/10/18 02:34:43;;;;;;;8.35;5.55;;;10.00;67.20;;;;;;6275769;22;20432;-68
2021/10/18 02:37:09;;;;;;;12.25;5.35;;;10.00;67.20;;;;;;6276060;22;20003;-68
2021/10/18 02:39:34;;;;;;;7.75;4.97;;;10.00;67.20;;;;;;6275989;22;20004;-68
2021/10/18 02:42:00;;;;;;;11.00;5.38;;;10.00;67.00;;;;;;6274423;22;20007;-68
2021/10/18 02:44:26;;;;;;;5.97;4.05;;;10.00;67.00;;;;;;6275634;22;20479;-68
2021/10/18 02:46:52;;;;;;;7.45;4.43;;;10.00;66.90;;;;;;6275936;22;20000;-68
2021/10/18 02:49:18;;;;;;;9.68;5.18;;;10.00;66.90;;;;;;6275924;22;20007;-68
2021/10/18 02:51:43;;;;;;;6.20;4.68;;;10.00;66.80;;;;;;6275452;22;20058;-68
2021/10/18 02:54:10;;;;;;;7.70;5.70;;;9.90;66.80;;;;;;6275605;22;20000;-68
2021/10/18 02:56:36;;;;;;;7.18;5.43;;;9.90;66.90;;;;;;6275736;22;20007;-68
2021/10/18 02:59:01;;;;;;;6.57;4.63;;;9.90;67.00;;;;;;6275851;22;20008;-68
2021/10/18 03:01:27;;;;;;;7.82;5.40;;;9.90;67.10;;;;;;6275639;22;20034;-68
2021/10/18 03:03:53;;;;;;;6.63;5.05;;;9.90;67.10;;;;;;6275738;22;20000;-68
2021/10/18 03:06:19;;;;;;;7.80;5.65;;;9.90;67.20;;;;;;6274960;22;20079;-68
2021/10/18 03:08:44;;;;;;;9.05;5.68;;;9.90;67.20;;;;;;6275646;22;20000;-68
2021/10/18 03:11:10;;;;;;;11.45;5.90;;;10.00;67.30;;;;;;6275660;22;20169;-69
2021/10/18 03:13:36;;;;;;;9.38;6.57;;;10.00;67.30;;;;;;6275185;22;20019;-68
2021/10/18 03:16:01;;;;;;;7.80;5.85;;;10.00;67.40;;;;;;6275239;22;20004;-68
2021/10/18 03:18:27;;;;;;;6.78;5.13;;;10.00;67.40;;;;;;6275415;22;20034;-68
2021/10/18 03:20:53;;;;;;;9.07;6.65;;;10.00;67.40;;;;;;6275485;22;20010;-68
2021/10/18 03:23:19;;;;;;;9.15;5.88;;;10.00;67.30;;;;;;6275563;22;20331;-68
2021/10/18 03:25:44;;;;;;;9.43;6.45;;;10.00;67.20;;;;;;6275060;22;20077;-68
2021/10/18 03:28:10;;;;;;;14.13;5.22;;;10.00;67.20;;;;;;6275248;22;20441;-68
2021/10/18 03:30:36;;;;;;;15.70;6.78;;;10.00;67.10;;;;;;6275164;22;20070;-68
2021/10/18 03:33:02;;;;;;;12.18;6.80;;;10.00;67.00;;;;;;6275138;22;20055;-68
2021/10/18 03:35:28;;;;;;;11.95;6.72;;;10.00;67.00;;;;;;6275129;22;20004;-68
2021/10/18 03:37:54;;;;;;;13.57;5.65;;;10.00;67.00;;;;;;6275223;22;19999;-68
2021/10/18 03:40:20;;;;;;;11.32;6.35;;;10.00;66.90;;;;;;6274710;22;20431;-68
2021/10/18 03:42:45;;;;;;;17.50;7.25;;;10.00;67.00;;;;;;6274862;22;20133;-68
2021/10/18 03:45:13;;;;;;;15.40;7.60;;;10.00;67.10;;;;;;6275291;22;20004;-68
2021/10/18 03:47:39;;;;;;;12.40;7.22;;;10.00;67.10;;;;;;6273726;22;20011;-68
2021/10/18 03:50:05;;;;;;;14.07;6.88;;;10.00;67.20;;;;;;6275251;22;20458;-68
2021/10/18 03:52:32;;;;;;;15.75;7.93;;;10.10;67.40;;;;;;6274733;22;19999;-69
2021/10/18 03:54:57;;;;;;;31.45;8.95;;;10.10;67.40;;;;;;6273569;22;20003;-69
2021/10/18 03:57:23;;;;;;;30.10;9.50;;;10.10;67.50;;;;;;6275154;22;20086;-68
2021/10/18 03:59:49;;;;;;;19.52;8.90;;;10.20;67.50;;;;;;6274758;22;20446;-69
2021/10/18 04:02:15;;;;;;;20.08;9.05;;;10.20;67.50;;;;;;6274674;22;20057;-68
2021/10/18 04:04:41;;;;;;;26.52;9.70;;;10.20;67.40;;;;;;6274929;22;20004;-68
2021/10/18 04:07:07;;;;;;;32.45;11.13;;;10.30;68.20;;;;;;6274986;22;20007;-68
2021/10/18 04:09:33;;;;;;;34.05;11.82;;;10.30;67.50;;;;;;6274918;22;20442;-70
2021/10/18 04:11:59;;;;;;;29.95;9.90;;;10.40;67.50;;;;;;6274600;22;20039;-68
2021/10/18 04:14:25;;;;;;;23.95;9.45;;;10.40;67.40;;;;;;6275296;22;20000;-68
2021/10/18 04:16:51;;;;;;;23.20;9.60;;;10.40;67.40;;;;;;6274990;22;20011;-68
2021/10/18 04:19:17;;;;;;;31.10;11.45;;;10.40;67.40;;;;;;6274939;22;20336;-68
2021/10/18 04:21:43;;;;;;;23.05;8.90;;;10.50;67.40;;;;;;6275000;22;20004;-68
2021/10/18 04:24:09;;;;;;;24.65;10.30;;;10.50;67.30;;;;;;6274904;22;20010;-68
2021/10/18 04:26:35;;;;;;;28.67;10.60;;;10.50;67.20;;;;;;6274504;22;20335;-69
2021/10/18 04:29:00;;;;;;;28.95;11.50;;;10.50;67.20;;;;;;6273154;22;20004;-68
2021/10/18 04:31:28;;;;;;;23.90;9.63;;;10.60;67.20;;;;;;6274781;22;20101;-68
2021/10/18 04:33:56;;;;;;;23.33;10.02;;;10.60;67.10;;;;;;6273100;22;20003;-68
2021/10/18 04:36:23;;;;;;;28.42;10.50;;;10.60;67.10;;;;;;6274625;22;20015;-69
2021/10/18 04:38:50;;;;;;;23.83;10.27;;;10.60;67.10;;;;;;6274571;22;20046;-67
2021/10/18 04:41:15;;;;;;;30.10;12.40;;;10.70;67.10;;;;;;6274545;22;20360;-68
2021/10/18 04:43:41;;;;;;;28.48;11.20;;;10.70;67.10;;;;;;6274593;22;20007;-68
2021/10/18 04:46:07;;;;;;;27.17;11.52;;;10.70;67.10;;;;;;6274800;22;20071;-68
2021/10/18 04:48:33;;;;;;;27.50;10.77;;;10.70;66.90;;;;;;6274401;22;20076;-68
2021/10/18 04:50:58;;;;;;;24.75;11.40;;;10.70;66.90;;;;;;6273014;22;20004;-68
2021/10/18 04:53:24;;;;;;;32.08;9.45;;;10.80;66.80;;;;;;6275183;22;20438;-68
2021/10/18 04:55:50;;;;;;;20.38;9.20;;;10.70;66.80;;;;;;6274641;22;20077;-68
2021/10/18 04:58:17;;;;;;;21.05;8.82;;;10.80;66.70;;;;;;6274581;22;20004;-68
2021/10/18 05:00:45;;;;;;;15.65;7.03;;;10.70;66.50;;;;;;6272886;22;20368;-68
2021/10/18 05:03:11;;;;;;;17.05;7.90;;;10.70;66.40;;;;;;6274706;22;20003;-68
2021/10/18 05:05:38;;;;;;;15.73;7.85;;;10.70;66.40;;;;;;6274511;22;20004;-68
2021/10/18 05:08:06;;;;;;;13.85;7.13;;;10.70;66.30;;;;;;6274640;22;20007;-67
2021/10/18 05:10:33;;;;;;;12.75;6.82;;;10.70;66.30;;;;;;6274562;22;20003;-68
2021/10/18 05:12:59;;;;;;;9.98;5.97;;;10.70;66.30;;;;;;6274084;22;20090;-67
2021/10/18 05:15:26;;;;;;;13.57;6.72;;;10.60;66.20;;;;;;6274427;22;20083;-67
2021/10/18 05:17:52;;;;;;;9.85;6.53;;;10.60;66.30;;;;;;6274247;22;20000;-67
2021/10/18 05:20:18;;;;;;;9.70;5.90;;;10.60;67.10;;;;;;6274127;22;20080;-68
2021/10/18 05:22:44;;;;;;;8.75;6.30;;;10.60;66.30;;;;;;6274297;22;19996;-67
2021/10/18 05:25:10;;;;;;;9.98;6.55;;;10.60;66.30;;;;;;6273949;22;20079;-67
2021/10/18 05:27:37;;;;;;;13.32;6.63;;;10.60;66.30;;;;;;6274321;22;20000;-68
2021/10/18 05:30:05;;;;;;;11.05;6.20;;;10.60;66.30;;;;;;6274377;22;20053;-68
2021/10/18 05:32:31;;;;;;;12.23;6.40;;;10.60;66.30;;;;;;6274358;22;20007;-68
2021/10/18 05:34:57;;;;;;;10.82;7.20;;;10.50;66.30;;;;;;6274024;22;20439;-67
2021/10/18 05:37:22;;;;;;;10.85;6.72;;;10.50;66.40;;;;;;6273991;22;20000;-67
2021/10/18 05:39:48;;;;;;;12.48;6.88;;;10.50;66.40;;;;;;6274204;22;20455;-68
2021/10/18 05:42:14;;;;;;;10.57;6.47;;;10.50;66.40;;;;;;6274450;22;20030;-68
2021/10/18 05:44:40;;;;;;;12.52;7.15;;;10.40;66.50;;;;;;6272640;22;20004;-68
2021/10/18 05:47:06;;;;;;;10.77;7.05;;;10.40;66.60;;;;;;6274219;22;20082;-68
2021/10/18 05:49:32;;;;;;;11.00;6.95;;;10.40;66.70;;;;;;6274193;22;20023;-68
2021/10/18 05:51:57;;;;;;;7.30;5.63;;;10.40;66.70;;;;;;6274247;22;20003;-68
2021/10/18 05:54:23;;;;;;;8.90;5.80;;;10.40;66.70;;;;;;6274376;22;20026;-68
2021/10/18 05:56:50;;;;;;;10.68;6.65;;;10.40;66.80;;;;;;6274083;22;19999;-68
2021/10/18 05:59:16;;;;;;;14.82;7.43;;;10.40;66.90;;;;;;6274571;22;20390;-68
2021/10/18 06:01:43;;;;;;;9.65;6.22;;;10.40;66.90;;;;;;6275589;22;20422;-69
2021/10/18 06:04:09;;;;;;;9.07;6.20;;;10.40;66.90;;;;;;6274879;22;20004;-68
2021/10/18 06:06:36;;;;;;;8.00;5.75;;;10.40;66.90;;;;;;6277283;22;20331;-68
2021/10/18 06:09:03;;;;;;;10.05;6.40;;;10.50;67.80;;;;;;6277346;22;20003;-69
2021/10/18 06:11:29;;;;;;;11.43;6.63;;;10.50;66.90;;;;;;6277475;22;20042;-69
2021/10/18 06:13:55;;;;;;;11.25;6.90;;;10.50;66.80;;;;;;6277092;22;20011;-68
2021/10/18 06:16:21;;;;;;;14.43;7.75;;;10.50;66.80;;;;;;6277270;22;20010;-68
2021/10/18 06:18:47;;;;;;;14.98;7.75;;;10.50;66.70;;;;;;6277308;22;20323;-68
2021/10/18 06:21:12;;;;;;;12.52;7.68;;;10.60;66.70;;;;;;6277216;22;20031;-68
2021/10/18 06:23:38;;;;;;;14.27;7.95;;;10.60;66.70;;;;;;6277361;22;20006;-68
2021/10/18 06:26:04;;;;;;;15.98;8.43;;;10.60;66.70;;;;;;6277156;22;20003;-68
2021/10/18 06:28:30;;;;;;;16.83;8.75;;;10.60;66.70;;;;;;6277193;22;20324;-68
2021/10/18 06:30:56;;;;;;;17.77;8.73;;;10.70;66.80;;;;;;6277159;22;20022;-68
2021/10/18 06:33:24;;;;;;;24.90;9.85;;;10.70;66.80;;;;;;6276601;22;20045;-69
2021/10/18 06:35:50;;;;;;;22.63;10.27;;;10.70;66.90;;;;;;6276568;22;20019;-69
2021/10/18 06:38:19;;;;;;;20.35;10.38;;;10.80;66.80;;;;;;6277106;22;20091;-69
2021/10/18 06:40:46;;;;;;;20.08;10.65;;;10.80;66.80;;;;;;6277206;22;20035;-69
2021/10/18 06:43:13;;;;;;;22.17;9.98;;;10.80;66.70;;;;;;6275479;22;20007;-69
2021/10/18 06:45:39;;;;;;;19.63;10.77;;;10.90;66.80;;;;;;6276767;22;20079;-67
2021/10/18 06:48:08;;;;;;;25.70;10.45;;;11.00;66.90;;;;;;6276639;22;20420;-67
2021/10/18 06:50:35;;;;;;;30.88;13.25;;;11.10;67.00;;;;;;6276876;22;20067;-67
2021/10/18 06:53:01;;;;;;;32.10;13.57;;;11.10;66.80;;;;;;6276718;22;20031;-68
2021/10/18 06:55:27;;;;;;;34.85;14.68;;;11.20;66.70;;;;;;6276887;22;19995;-68
2021/10/18 06:57:55;;;;;;;41.05;15.63;;;11.20;66.60;;;;;;6276400;22;20078;-68
2021/10/18 07:00:21;;;;;;;27.80;13.00;;;11.30;66.60;;;;;;6276721;22;20050;-68
2021/10/18 07:02:47;;;;;;;34.28;16.48;;;11.40;66.50;;;;;;6276604;22;20004;-68
2021/10/18 07:05:13;;;;;;;35.70;15.38;;;11.50;66.50;;;;;;6276544;22;20051;-67
2021/10/18 07:07:39;;;;;;;32.30;15.20;;;11.50;66.40;;;;;;6276490;22;20331;-67
2021/10/18 07:10:06;;;;;;;33.75;15.52;;;11.60;66.40;;;;;;6276449;22;20057;-68
2021/10/18 07:12:34;;;;;;;28.85;13.27;;;11.70;66.40;;;;;;6276626;22;20012;-68
2021/10/18 07:15:01;;;;;;;32.67;15.02;;;11.80;66.30;;;;;;6276130;22;20454;-68
2021/10/18 07:17:27;;;;;;;29.95;15.70;;;11.90;66.10;;;;;;6276313;22;20071;-68
2021/10/18 07:19:55;;;;;;;32.83;15.25;;;11.90;65.90;;;;;;6276719;22;20454;-68
2021/10/18 07:22:27;;;;;;;28.80;13.85;;;12.00;65.70;;;;;;6276760;22;20078;-68
2021/10/18 07:24:54;;;;;;;28.42;13.23;;;12.00;65.60;;;;;;6276637;22;20007;-68
2021/10/18 07:27:20;;;;;;;34.22;13.77;;;12.10;65.40;;;;;;6276251;22;20004;-68
2021/10/18 07:29:46;;;;;;;38.33;15.30;;;12.20;65.30;;;;;;6276516;22;20046;-68
2021/10/18 07:32:12;;;;;;;31.25;14.43;;;12.30;64.90;;;;;;6275818;22;20419;-68
2021/10/18 07:34:37;;;;;;;27.70;15.52;;;12.30;64.80;;;;;;6276355;22;20490;-68
2021/10/18 07:37:04;;;;;;;31.77;15.13;;;12.40;64.60;;;;;;6276566;22;20489;-68
2021/10/18 07:39:30;;;;;;;26.90;14.15;;;12.40;64.30;;;;;;6276537;22;20026;-68
2021/10/18 07:41:58;;;;;;;31.60;14.88;;;12.40;64.00;;;;;;6276606;22;19999;-68
2021/10/18 07:44:25;;;;;;;44.78;17.23;;;12.40;63.90;;;;;;6276328;22;20065;-69
2021/10/18 07:46:56;;;;;;;60.30;16.60;;;12.40;63.80;;;;;;6276164;22;20075;-68
2021/10/18 07:49:29;;;;;;;54.25;16.65;;;12.30;63.80;;;;;;6276128;22;20054;-68
2021/10/18 07:51:56;;;;;;;48.03;16.90;;;12.30;63.90;;;;;;6275694;22;19988;-68
2021/10/18 07:54:24;;;;;;;40.88;14.80;;;12.30;64.10;;;;;;6276212;22;20312;-68
2021/10/18 07:56:51;;;;;;;32.60;15.73;;;12.30;64.10;;;;;;6274381;22;20420;-68
2021/10/18 07:59:16;;;;;;;55.17;19.85;;;12.30;64.10;;;;;;6275689;22;20431;-68
2021/10/18 08:01:43;;;;;;;36.13;16.63;;;12.30;63.90;;;;;;6275191;22;20023;-62
2021/10/18 08:04:09;;;;;;;39.78;17.77;;;12.30;63.90;;;;;;6272511;22;20003;-68
2021/10/18 08:06:35;;;;;;;44.05;18.67;;;12.30;63.80;;;;;;6274570;22;20133;-69
2021/10/18 08:09:01;;;;;;;39.00;17.42;;;12.40;63.90;;;;;;6274964;22;20079;-68
2021/10/18 08:11:27;;;;;;;36.85;17.55;;;12.40;63.60;;;;;;6273600;22;20366;-72
2021/10/18 08:13:53;;;;;;;30.95;15.43;;;12.40;63.50;;;;;;6272921;22;20039;-70
2021/10/18 08:16:19;;;;;;;30.67;16.48;;;12.40;63.40;;;;;;6271965;22;20045;-70
2021/10/18 08:18:45;;;;;;;45.10;17.10;;;12.40;63.30;;;;;;6271818;22;20007;-70
2021/10/18 08:21:12;;;;;;;37.45;16.33;;;12.40;63.30;;;;;;6273480;22;20458;-70
2021/10/18 08:23:38;;;;;;;36.00;17.23;;;12.30;63.40;;;;;;6273817;22;20011;-70
2021/10/18 08:26:05;;;;;;;26.38;14.55;;;12.30;63.50;;;;;;6273744;22;20003;-70
2021/10/18 08:28:31;;;;;;;29.33;16.00;;;12.40;63.70;;;;;;6273375;22;20045;-70
2021/10/18 08:30:58;;;;;;;28.67;15.60;;;12.40;63.60;;;;;;6273472;22;20431;-70
2021/10/18 08:33:24;;;;;;;28.58;15.10;;;12.40;63.70;;;;;;6273135;22;19999;-69
2021/10/18 08:35:50;;;;;;;25.65;14.60;;;12.40;63.90;;;;;;6273835;22;20008;-70
2021/10/18 08:41:05;;;;;;;27.02;15.10;;;12.50;63.90;;;;;;6274023;22;20015;-70
2021/10/18 08:46:06;;;;;;;23.85;14.15;;;12.50;63.60;;;;;;6274291;22;20018;-70
2021/10/18 08:48:33;;;;;;;25.95;13.23;;;12.50;63.40;;;;;;6273301;22;20022;-69
2021/10/18 08:50:58;;;;;;;23.45;14.40;;;12.50;63.40;;;;;;6273537;22;20076;-70
2021/10/18 08:53:24;;;;;;;23.42;14.82;;;12.50;63.30;;;;;;6273487;22;20023;-69
2021/10/18 08:55:50;;;;;;;23.95;14.02;;;12.50;63.30;;;;;;6273568;22;20000;-70
2021/10/18 08:58:17;;;;;;;21.25;14.18;;;12.60;63.60;;;;;;6273712;22;19999;-69
2021/10/18 09:00:46;;;;;;;30.88;13.77;;;12.60;63.50;;;;;;6273620;22;20060;-70
2021/10/18 09:03:24;;;;;;;27.38;14.50;;;12.60;64.40;;;;;;6272046;22;20026;-69
2021/10/18 09:06:07;;;;;;;34.28;15.90;;;12.60;63.60;;;;;;6273578;22;20441;-69
2021/10/18 09:08:54;;;;;;;25.58;14.60;;;12.70;63.50;;;;;;6273575;22;20000;-70
2021/10/18 09:11:21;;;;;;;32.33;18.88;;;12.70;63.40;;;;;;6273905;22;20086;-70
2021/10/18 09:13:52;;;;;;;38.72;20.55;;;12.70;63.50;;;;;;6273281;22;20016;-70
2021/10/18 09:16:28;;;;;;;33.38;19.15;;;12.80;63.60;;;;;;6273761;22;20010;-69
2021/10/18 09:19:09;;;;;;;38.80;20.85;;;12.80;63.70;;;;;;6271753;22;20031;-70
2021/10/18 09:21:54;;;;;;;35.20;20.52;;;12.80;63.70;;;;;;6274561;22;19999;-70
2021/10/18 09:24:29;;;;;;;35.30;20.27;;;12.90;63.50;;;;;;6274442;22;20065;-70
2021/10/18 09:27:00;;;;;;;37.88;21.25;;;13.00;63.50;;;;;;6274411;22;20441;-69
2021/10/18 09:29:37;;;;;;;48.85;26.88;;;13.10;63.50;;;;;;6274299;22;20006;-70
2021/10/18 09:32:04;;;;;;;54.45;29.27;;;13.10;63.10;;;;;;6274232;22;20075;-69
2021/10/18 09:34:33;;;;;;;73.70;38.10;;;13.20;63.20;;;;;;6274320;22;20417;-70
2021/10/18 09:37:09;;;;;;;73.40;39.92;;;13.20;62.80;;;;;;6274606;22;20007;-70
2021/10/18 09:39:43;;;;;;;84.57;44.00;;;13.30;62.70;;;;;;6275639;22;20000;-70
2021/10/18 09:42:11;;;;;;;80.03;41.53;;;13.40;62.70;;;;;;6276648;22;20077;-70
2021/10/18 09:45:34;;;;;;;88.65;39.30;;;13.40;62.70;;;;;;6276519;22;20226;-70
2021/10/18 10:52:41;;;;;;;44.95;26.67;;;14.60;59.90;;;;;;6182007;23;20127;-71
2021/10/18 10:55:20;;;;;;;46.03;27.50;;;14.60;59.90;;;;;;6156952;23;20171;-70
2021/10/18 10:57:46;;;;;;;42.42;25.63;;;14.70;59.80;;;;;;6182009;23;20005;-71
2021/10/18 11:00:39;;;;;;;41.33;24.60;;;14.70;59.90;;;;;;6182060;23;20127;-70
2021/10/18 11:03:35;;;;;;;45.63;26.33;;;14.70;59.80;;;;;;6182115;23;20005;-70
2021/10/18 11:06:03;;;;;;;42.72;24.67;;;14.80;59.70;;;;;;6182019;23;20059;-71
2021/10/18 11:08:44;;;;;;;47.33;24.42;;;14.90;59.40;;;;;;6157173;23;20005;-70
2021/10/18 11:11:16;;;;;;;47.72;24.55;;;14.90;59.30;;;;;;6181988;23;20009;-70
2021/10/18 11:13:57;;;;;;;45.40;24.30;;;14.90;59.10;;;;;;6237887;22;20019;-71
2021/10/18 11:16:28;;;;;;;32.13;20.75;;;14.90;58.90;;;;;;6274124;22;20380;-70
2021/10/18 11:18:59;;;;;;;36.45;21.75;;;15.00;59.20;;;;;;6275708;22;20327;-70
2021/10/18 11:21:35;;;;;;;39.10;21.38;;;15.00;59.10;;;;;;6275745;22;20741;-70
2021/10/18 11:24:11;;;;;;;35.97;20.88;;;15.10;59.10;;;;;;6275726;22;20008;-70
2021/10/18 11:26:41;;;;;;;34.85;20.23;;;15.10;58.80;;;;;;6275404;22;20042;-70
2021/10/18 11:29:10;;;;;;;29.63;17.92;;;15.10;58.70;;;;;;6275433;22;20023;-70
2021/10/18 11:31:38;;;;;;;37.97;20.88;;;15.20;58.80;;;;;;6275436;22;20004;-70
2021/10/18 11:34:09;;;;;;;33.58;19.48;;;15.20;58.60;;;;;;6275658;22;19996;-70
2021/10/18 11:36:37;;;;;;;33.25;20.15;;;15.30;58.60;;;;;;6275592;22;20075;-70
2021/10/18 11:39:07;;;;;;;34.15;20.13;;;15.30;58.20;;;;;;6275536;22;20007;-70
2021/10/18 11:41:58;;;;;;;38.20;20.77;;;15.30;58.00;;;;;;6275501;22;20082;-70
2021/10/18 11:44:45;;;;;;;36.67;21.15;;;15.40;57.80;;;;;;6275347;22;20012;-70
2021/10/18 11:47:26;;;;;;;31.60;17.15;;;15.40;57.80;;;;;;6275023;22;20031;-70
2021/10/18 11:50:08;;;;;;;28.58;17.30;;;15.50;58.00;;;;;;6275223;22;20000;-71
2021/10/18 11:52:39;;;;;;;32.63;17.92;;;15.50;57.70;;;;;;6275294;22;19995;-70
2021/10/18 11:55:10;;;;;;;30.88;17.35;;;15.60;57.80;;;;;;6275383;22;20004;-70
2021/10/18 11:57:41;;;;;;;29.95;18.15;;;15.60;57.80;;;;;;6275200;22;20007;-70
2021/10/18 12:00:09;;;;;;;32.20;17.63;;;15.70;57.90;;;;;;6275196;22;20062;-70
2021/10/18 12:02:41;;;;;;;27.58;16.30;;;15.70;56.70;;;;;;6274977;22;20414;-70
2021/10/18 12:05:07;;;;;;;21.42;13.43;;;15.70;56.10;;;;;;6275181;22;19996;-70
2021/10/18 12:07:47;;;;;;;26.48;15.35;;;15.80;56.30;;;;;;6274926;22;20010;-70
2021/10/18 12:10:29;;;;;;;30.77;16.70;;;15.80;56.20;;;;;;6275270;22;19996;-70
2021/10/18 12:13:04;;;;;;;27.75;15.27;;;15.80;56.40;;;;;;6274834;22;20012;-70
2021/10/18 12:15:32;;;;;;;25.63;14.48;;;15.90;56.20;;;;;;6274989;22;20070;-70
2021/10/18 12:17:59;;;;;;;25.45;14.25;;;15.90;56.30;;;;;;6275009;22;20010;-70
2021/10/18 12:20:25;;;;;;;23.75;14.57;;;16.00;56.50;;;;;;6275112;22;19995;-70
2021/10/18 12:22:59;;;;;;;26.67;15.32;;;16.00;56.50;;;;;;6275088;22;20423;-70
2021/10/18 12:25:25;;;;;;;25.98;13.45;;;16.00;56.00;;;;;;6275031;22;20002;-71
2021/10/18 12:27:50;;;;;;;25.48;14.90;;;16.10;56.00;;;;;;6275059;22;19996;-71
2021/10/18 12:30:39;;;;;;;25.08;13.23;;;16.10;55.70;;;;;;6274963;22;19999;-70
2021/10/18 12:33:13;;;;;;;34.97;16.02;;;16.10;56.20;;;;;;6274776;22;20384;-71
2021/10/18 12:35:40;;;;;;;28.77;15.45;;;16.20;55.90;;;;;;6275015;22;20000;-71
2021/10/18 12:38:11;;;;;;;19.00;12.40;;;16.20;56.30;;;;;;6274887;22;20000;-70
2021/10/18 12:40:38;;;;;;;22.17;12.77;;;16.30;55.50;;;;;;6273437;22;20003;-71
2021/10/18 12:43:04;;;;;;;19.08;13.02;;;16.30;55.40;;;;;;6274926;22;19992;-70
2021/10/18 12:45:35;;;;;;;19.25;12.50;;;16.30;54.90;;;;;;6274692;22;20491;-70
2021/10/18 12:48:02;;;;;;;22.95;13.75;;;16.40;55.10;;;;;;6273317;22;19999;-70
2021/10/18 12:50:30;;;;;;;24.65;12.25;;;16.40;54.60;;;;;;6274963;22;20435;-70
2021/10/18 12:53:00;;;;;;;21.23;11.88;;;16.40;54.40;;;;;;6274744;22;20053;-71
2021/10/18 12:55:29;;;;;;;25.88;13.48;;;16.40;54.90;;;;;;6274886;22;20000;-70
2021/10/18 12:57:57;;;;;;;27.33;12.82;;;16.40;55.00;;;;;;6274636;22;20327;-70
2021/10/18 13:00:28;;;;;;;21.20;12.77;;;16.50;55.10;;;;;;6274548;22;20277;-70
2021/10/18 13:02:55;;;;;;;20.85;12.52;;;16.50;55.00;;;;;;6274697;22;20007;-70
2021/10/18 13:05:25;;;;;;;29.15;14.38;;;16.50;54.70;;;;;;6274679;22;20006;-71
2021/10/18 13:07:54;;;;;;;18.50;12.50;;;16.50;54.40;;;;;;6273127;22;20011;-70
2021/10/18 13:10:21;;;;;;;25.48;12.85;;;16.50;54.60;;;;;;6274682;22;20489;-70
2021/10/18 13:12:48;;;;;;;21.67;10.77;;;16.60;54.90;;;;;;6274321;22;20054;-71
2021/10/18 13:15:15;;;;;;;16.60;10.85;;;16.60;55.00;;;;;;6276143;22;20003;-74
2021/10/18 13:17:42;;;;;;;32.10;12.85;;;16.70;55.00;;;;;;6275930;22;20006;-71
2021/10/18 13:20:09;;;;;;;20.92;12.27;;;16.60;54.60;;;;;;6275661;22;20010;-71
2021/10/18 13:22:36;;;;;;;20.45;10.68;;;16.70;54.80;;;;;;6274594;22;20004;-71
2021/10/18 13:25:03;;;;;;;24.05;10.88;;;16.70;54.10;;;;;;6276719;22;20023;-70
2021/10/18 13:27:29;;;;;;;14.05;8.85;;;16.70;53.60;;;;;;6276624;22;20000;-69
2021/10/18 13:29:54;;;;;;;19.17;9.63;;;16.70;53.50;;;;;;6275211;22;20095;-70
2021/10/18 13:32:20;;;;;;;21.17;10.55;;;16.80;53.70;;;;;;6276569;22;20424;-70
2021/10/18 13:34:46;;;;;;;22.75;10.35;;;16.80;53.70;;;;;;6276713;22;20004;-70
2021/10/18 13:37:12;;;;;;;19.30;9.70;;;16.80;53.90;;;;;;6276678;22;20011;-70
2021/10/18 13:39:42;;;;;;;16.08;8.15;;;16.80;52.90;;;;;;6276714;22;20000;-70
2021/10/18 13:42:09;;;;;;;11.35;6.80;;;16.80;52.80;;;;;;6276562;22;20004;-70
2021/10/18 13:44:36;;;;;;;10.88;7.38;;;16.90;52.90;;;;;;6276749;22;20326;-70
2021/10/18 13:47:03;;;;;;;12.35;7.03;;;16.90;52.40;;;;;;6274629;22;20060;-70
2021/10/18 13:49:29;;;;;;;12.90;6.72;;;16.90;52.70;;;;;;6276558;22;20129;-70